Terminal Aerodrome Forecast
Issued by NWS

Home | Current Version | Previous Version | Text Only | Print | Product List | Glossary On
Versions: 1 2 3 4 5 6 7 8 9 10 11 12 13 14 15 16 17 18 19
000
FTUS44 KBMX 180520
TAFTOI
TAF
KTOI 180520Z 1806/1906 00000KT P6SM OVC070
     FM180700 00000KT 4SM BR OVC006
     FM180900 00000KT 2SM BR OVC004
     FM181600 27005KT P6SM OVC015=

USA.gov is the U.S. government's official web portal to all federal, state and local government web resources and services.